sensor_id;sensor_type;location;lat;lon;timestamp;pressure;altitude;pressure_sealevel;temperature;humidity
73566;BME280;61846;52.970;-3.168;2023-05-27T00:01:18;102147.47;;;15.53;42.47
73566;BME280;61846;52.970;-3.168;2023-05-27T00:03:44;102144.72;;;16.26;41.29
73566;BME280;61846;52.970;-3.168;2023-05-27T00:06:08;102145.39;;;15.64;42.94
73566;BME280;61846;52.970;-3.168;2023-05-27T00:08:34;102147.39;;;15.57;43.34
73566;BME280;61846;52.970;-3.168;2023-05-27T00:10:59;102142.99;;;15.97;41.80
73566;BME280;61846;52.970;-3.168;2023-05-27T00:13:25;102144.64;;;15.89;41.70
73566;BME280;61846;52.970;-3.168;2023-05-27T00:15:50;102144.69;;;15.98;41.53
73566;BME280;61846;52.970;-3.168;2023-05-27T00:18:16;102148.37;;;15.38;43.26
73566;BME280;61846;52.970;-3.168;2023-05-27T00:20:41;102147.77;;;15.98;42.20
73566;BME280;61846;52.970;-3.168;2023-05-27T00:23:07;102145.22;;;16.24;41.51
73566;BME280;61846;52.970;-3.168;2023-05-27T00:25:32;102141.41;;;15.36;43.16
73566;BME280;61846;52.970;-3.168;2023-05-27T00:27:58;102139.47;;;15.53;42.92
73566;BME280;61846;52.970;-3.168;2023-05-27T00:30:23;102135.59;;;15.62;42.44
73566;BME280;61846;52.970;-3.168;2023-05-27T00:32:48;102134.64;;;15.79;41.80
73566;BME280;61846;52.970;-3.168;2023-05-27T00:35:14;102133.28;;;15.48;42.03
73566;BME280;61846;52.970;-3.168;2023-05-27T00:37:39;102130.90;;;16.05;41.47
73566;BME280;61846;52.970;-3.168;2023-05-27T00:40:07;102130.05;;;16.06;41.81
73566;BME280;61846;52.970;-3.168;2023-05-27T00:42:29;102129.85;;;15.79;42.20
73566;BME280;61846;52.970;-3.168;2023-05-27T00:44:54;102127.20;;;15.42;43.05
73566;BME280;61846;52.970;-3.168;2023-05-27T00:47:20;102126.31;;;15.68;41.77
73566;BME280;61846;52.970;-3.168;2023-05-27T00:49:46;102124.59;;;14.50;44.87
73566;BME280;61846;52.970;-3.168;2023-05-27T00:52:11;102115.12;;;15.25;43.07
73566;BME280;61846;52.970;-3.168;2023-05-27T00:54:37;102110.33;;;15.33;42.87
73566;BME280;61846;52.970;-3.168;2023-05-27T00:57:03;102114.47;;;14.82;43.52
73566;BME280;61846;52.970;-3.168;2023-05-27T00:59:28;102117.05;;;13.76;45.63
73566;BME280;61846;52.970;-3.168;2023-05-27T01:01:54;102112.99;;;14.92;43.73
73566;BME280;61846;52.970;-3.168;2023-05-27T01:04:19;102115.50;;;14.14;45.00
73566;BME280;61846;52.970;-3.168;2023-05-27T01:06:54;102113.82;;;13.96;45.09
73566;BME280;61846;52.970;-3.168;2023-05-27T01:09:17;102110.00;;;14.80;43.88
73566;BME280;61846;52.970;-3.168;2023-05-27T01:11:42;102109.04;;;14.80;43.34
73566;BME280;61846;52.970;-3.168;2023-05-27T01:14:07;102110.17;;;14.79;43.38
73566;BME280;61846;52.970;-3.168;2023-05-27T01:16:28;102109.41;;;14.52;43.43
73566;BME280;61846;52.970;-3.168;2023-05-27T01:18:53;102107.79;;;14.35;43.39
73566;BME280;61846;52.970;-3.168;2023-05-27T01:21:18;102108.09;;;14.16;43.93
73566;BME280;61846;52.970;-3.168;2023-05-27T01:23:42;102107.43;;;13.78;44.80
73566;BME280;61846;52.970;-3.168;2023-05-27T01:26:08;102104.42;;;14.25;43.96
73566;BME280;61846;52.970;-3.168;2023-05-27T01:28:34;102104.54;;;13.78;44.50
73566;BME280;61846;52.970;-3.168;2023-05-27T01:31:06;102102.03;;;13.61;44.97
73566;BME280;61846;52.970;-3.168;2023-05-27T01:33:26;102094.46;;;15.08;42.59
73566;BME280;61846;52.970;-3.168;2023-05-27T01:35:52;102094.64;;;13.91;43.64
73566;BME280;61846;52.970;-3.168;2023-05-27T01:38:18;102094.46;;;14.48;43.40
73566;BME280;61846;52.970;-3.168;2023-05-27T01:40:41;102094.57;;;14.26;43.98
73566;BME280;61846;52.970;-3.168;2023-05-27T01:43:07;102090.98;;;14.82;42.81
73566;BME280;61846;52.970;-3.168;2023-05-27T01:45:32;102089.88;;;14.39;42.60
73566;BME280;61846;52.970;-3.168;2023-05-27T01:47:57;102090.75;;;14.95;42.53
73566;BME280;61846;52.970;-3.168;2023-05-27T01:50:23;102087.70;;;14.57;43.28
73566;BME280;61846;52.970;-3.168;2023-05-27T01:52:48;102086.39;;;14.13;43.92
73566;BME280;61846;52.970;-3.168;2023-05-27T01:55:14;102085.04;;;13.51;44.95
73566;BME280;61846;52.970;-3.168;2023-05-27T01:57:39;102084.76;;;13.54;44.82
73566;BME280;61846;52.970;-3.168;2023-05-27T02:00:06;102081.92;;;13.53;44.95
73566;BME280;61846;52.970;-3.168;2023-05-27T02:02:31;102081.46;;;13.89;43.99
73566;BME280;61846;52.970;-3.168;2023-05-27T02:04:56;102078.28;;;13.41;44.61
73566;BME280;61846;52.970;-3.168;2023-05-27T02:07:21;102074.86;;;13.17;45.10
73566;BME280;61846;52.970;-3.168;2023-05-27T02:09:46;102070.82;;;14.38;43.04
73566;BME280;61846;52.970;-3.168;2023-05-27T02:12:12;102070.56;;;14.28;43.09
73566;BME280;61846;52.970;-3.168;2023-05-27T02:14:38;102071.87;;;13.98;43.74
73566;BME280;61846;52.970;-3.168;2023-05-27T02:17:04;102068.97;;;14.45;42.62
73566;BME280;61846;52.970;-3.168;2023-05-27T02:19:29;102063.23;;;13.67;43.73
73566;BME280;61846;52.970;-3.168;2023-05-27T02:21:54;102060.96;;;13.16;44.54
73566;BME280;61846;52.970;-3.168;2023-05-27T02:24:20;102056.69;;;14.03;42.97
73566;BME280;61846;52.970;-3.168;2023-05-27T02:26:45;102056.80;;;13.99;43.29
73566;BME280;61846;52.970;-3.168;2023-05-27T02:29:10;102053.23;;;13.12;44.72
73566;BME280;61846;52.970;-3.168;2023-05-27T02:31:36;102051.84;;;13.71;43.84
73566;BME280;61846;52.970;-3.168;2023-05-27T02:34:02;102049.88;;;13.98;43.08
73566;BME280;61846;52.970;-3.168;2023-05-27T02:36:28;102049.38;;;13.69;43.44
73566;BME280;61846;52.970;-3.168;2023-05-27T02:38:53;102046.07;;;13.87;43.21
73566;BME280;61846;52.970;-3.168;2023-05-27T02:41:18;102041.72;;;14.06;43.19
73566;BME280;61846;52.970;-3.168;2023-05-27T02:43:44;102041.31;;;12.68;46.23
73566;BME280;61846;52.970;-3.168;2023-05-27T02:46:09;102038.15;;;13.50;44.79
73566;BME280;61846;52.970;-3.168;2023-05-27T02:48:35;102037.42;;;13.66;44.44
73566;BME280;61846;52.970;-3.168;2023-05-27T02:51:00;102040.52;;;13.81;43.82
73566;BME280;61846;52.970;-3.168;2023-05-27T02:53:26;102037.80;;;13.68;43.61
73566;BME280;61846;52.970;-3.168;2023-05-27T02:55:52;102038.02;;;13.86;43.71
73566;BME280;61846;52.970;-3.168;2023-05-27T02:58:17;102038.01;;;13.50;43.94
73566;BME280;61846;52.970;-3.168;2023-05-27T03:00:42;102037.28;;;13.34;44.44
73566;BME280;61846;52.970;-3.168;2023-05-27T03:03:08;102031.85;;;13.61;44.03
73566;BME280;61846;52.970;-3.168;2023-05-27T03:05:33;102032.26;;;13.12;44.53
73566;BME280;61846;52.970;-3.168;2023-05-27T03:07:59;102029.57;;;13.37;44.74
73566;BME280;61846;52.970;-3.168;2023-05-27T03:10:24;102025.47;;;13.06;44.96
73566;BME280;61846;52.970;-3.168;2023-05-27T03:12:50;102023.17;;;12.83;46.29
73566;BME280;61846;52.970;-3.168;2023-05-27T03:15:16;102019.41;;;12.95;45.50
73566;BME280;61846;52.970;-3.168;2023-05-27T03:17:41;102018.68;;;12.55;45.63
73566;BME280;61846;52.970;-3.168;2023-05-27T03:20:07;102017.34;;;13.43;44.53
73566;BME280;61846;52.970;-3.168;2023-05-27T03:22:32;102016.39;;;12.60;45.32
73566;BME280;61846;52.970;-3.168;2023-05-27T03:24:57;102015.15;;;13.30;43.96
73566;BME280;61846;52.970;-3.168;2023-05-27T03:27:23;102019.55;;;12.75;45.30
73566;BME280;61846;52.970;-3.168;2023-05-27T03:29:49;102020.01;;;12.81;44.56
73566;BME280;61846;52.970;-3.168;2023-05-27T03:32:14;102017.49;;;12.77;45.28
73566;BME280;61846;52.970;-3.168;2023-05-27T03:34:39;102016.85;;;12.43;45.43
73566;BME280;61846;52.970;-3.168;2023-05-27T03:37:05;102014.09;;;12.95;44.66
73566;BME280;61846;52.970;-3.168;2023-05-27T03:39:31;102010.64;;;12.93;43.91
73566;BME280;61846;52.970;-3.168;2023-05-27T03:41:57;102006.69;;;12.43;45.46
73566;BME280;61846;52.970;-3.168;2023-05-27T03:44:22;102005.04;;;12.48;45.05
73566;BME280;61846;52.970;-3.168;2023-05-27T03:46:47;102001.01;;;12.16;45.66
73566;BME280;61846;52.970;-3.168;2023-05-27T03:49:13;102000.00;;;12.83;44.21
73566;BME280;61846;52.970;-3.168;2023-05-27T03:51:38;102002.57;;;13.24;43.85
73566;BME280;61846;52.970;-3.168;2023-05-27T03:54:03;102000.04;;;13.46;43.86
73566;BME280;61846;52.970;-3.168;2023-05-27T03:56:29;102000.61;;;13.19;44.02
73566;BME280;61846;52.970;-3.168;2023-05-27T03:58:54;101997.01;;;11.76;46.47
73566;BME280;61846;52.970;-3.168;2023-05-27T04:01:20;101996.00;;;11.95;46.01
73566;BME280;61846;52.970;-3.168;2023-05-27T04:03:46;101995.78;;;11.80;46.36
73566;BME280;61846;52.970;-3.168;2023-05-27T04:06:11;101991.37;;;12.57;44.91
73566;BME280;61846;52.970;-3.168;2023-05-27T04:08:37;101991.95;;;12.59;44.41
73566;BME280;61846;52.970;-3.168;2023-05-27T04:11:02;101993.16;;;12.79;44.40
73566;BME280;61846;52.970;-3.168;2023-05-27T04:13:28;101993.24;;;12.95;43.58
73566;BME280;61846;52.970;-3.168;2023-05-27T04:15:53;101991.54;;;12.79;44.90
73566;BME280;61846;52.970;-3.168;2023-05-27T04:18:18;101993.17;;;13.04;43.78
73566;BME280;61846;52.970;-3.168;2023-05-27T04:20:44;101997.36;;;12.76;44.11
73566;BME280;61846;52.970;-3.168;2023-05-27T04:23:10;102000.29;;;12.83;44.15
73566;BME280;61846;52.970;-3.168;2023-05-27T04:25:35;101997.61;;;12.34;45.19
73566;BME280;61846;52.970;-3.168;2023-05-27T04:28:00;101998.09;;;12.00;45.47
73566;BME280;61846;52.970;-3.168;2023-05-27T04:30:26;101996.44;;;12.37;44.80
73566;BME280;61846;52.970;-3.168;2023-05-27T04:32:51;101996.75;;;12.57;45.01
73566;BME280;61846;52.970;-3.168;2023-05-27T04:35:17;101999.90;;;12.75;44.52
73566;BME280;61846;52.970;-3.168;2023-05-27T04:37:43;101999.46;;;12.51;45.21
73566;BME280;61846;52.970;-3.168;2023-05-27T04:40:09;101999.43;;;12.36;44.80
73566;BME280;61846;52.970;-3.168;2023-05-27T04:42:34;101997.24;;;11.82;45.71
73566;BME280;61846;52.970;-3.168;2023-05-27T04:44:59;101996.41;;;12.66;45.00
73566;BME280;61846;52.970;-3.168;2023-05-27T04:47:25;101998.37;;;12.36;45.29
73566;BME280;61846;52.970;-3.168;2023-05-27T04:49:50;101998.85;;;12.57;45.08
73566;BME280;61846;52.970;-3.168;2023-05-27T04:52:16;101998.96;;;12.74;44.87
73566;BME280;61846;52.970;-3.168;2023-05-27T04:54:41;101999.88;;;12.09;45.70
73566;BME280;61846;52.970;-3.168;2023-05-27T04:57:07;102001.41;;;11.98;46.03
73566;BME280;61846;52.970;-3.168;2023-05-27T04:59:32;101999.32;;;12.25;45.21
73566;BME280;61846;52.970;-3.168;2023-05-27T05:01:58;102002.13;;;12.33;45.50
73566;BME280;61846;52.970;-3.168;2023-05-27T05:04:23;102002.44;;;12.52;44.22
73566;BME280;61846;52.970;-3.168;2023-05-27T05:06:49;102001.10;;;12.58;44.65
73566;BME280;61846;52.970;-3.168;2023-05-27T05:09:14;102001.36;;;12.52;45.10
73566;BME280;61846;52.970;-3.168;2023-05-27T05:11:40;101998.01;;;12.47;44.98
73566;BME280;61846;52.970;-3.168;2023-05-27T05:14:05;101998.26;;;12.61;44.84
73566;BME280;61846;52.970;-3.168;2023-05-27T05:16:31;102003.18;;;12.93;44.43
73566;BME280;61846;52.970;-3.168;2023-05-27T05:18:56;102001.84;;;12.67;44.62
73566;BME280;61846;52.970;-3.168;2023-05-27T05:21:21;102002.80;;;11.98;45.31
73566;BME280;61846;52.970;-3.168;2023-05-27T05:23:47;102001.67;;;11.99;45.70
73566;BME280;61846;52.970;-3.168;2023-05-27T05:26:12;102002.41;;;11.96;45.81
73566;BME280;61846;52.970;-3.168;2023-05-27T05:28:37;102003.16;;;11.93;46.13
73566;BME280;61846;52.970;-3.168;2023-05-27T05:31:03;102001.42;;;12.68;45.38
73566;BME280;61846;52.970;-3.168;2023-05-27T05:33:28;102004.52;;;11.27;47.97
73566;BME280;61846;52.970;-3.168;2023-05-27T05:35:54;102000.65;;;12.25;45.70
73566;BME280;61846;52.970;-3.168;2023-05-27T05:38:19;102002.21;;;12.17;46.23
73566;BME280;61846;52.970;-3.168;2023-05-27T05:40:44;102003.37;;;12.12;46.16
73566;BME280;61846;52.970;-3.168;2023-05-27T05:43:10;102002.02;;;12.12;45.60
73566;BME280;61846;52.970;-3.168;2023-05-27T05:45:36;102001.15;;;12.44;45.88
73566;BME280;61846;52.970;-3.168;2023-05-27T05:48:01;102003.63;;;12.80;44.48
73566;BME280;61846;52.970;-3.168;2023-05-27T05:50:27;102002.61;;;12.80;44.83
73566;BME280;61846;52.970;-3.168;2023-05-27T05:52:52;102004.39;;;11.94;46.27
73566;BME280;61846;52.970;-3.168;2023-05-27T05:55:18;102004.65;;;12.85;44.98
73566;BME280;61846;52.970;-3.168;2023-05-27T05:57:44;102004.10;;;13.33;44.45
73566;BME280;61846;52.970;-3.168;2023-05-27T06:00:11;102004.57;;;13.03;44.35
73566;BME280;61846;52.970;-3.168;2023-05-27T06:02:35;102006.45;;;12.90;44.15
73566;BME280;61846;52.970;-3.168;2023-05-27T06:05:00;102006.91;;;13.29;44.08
73566;BME280;61846;52.970;-3.168;2023-05-27T06:07:26;102003.39;;;13.63;43.64
73566;BME280;61846;52.970;-3.168;2023-05-27T06:09:51;102000.77;;;13.34;43.86
73566;BME280;61846;52.970;-3.168;2023-05-27T06:12:17;101998.90;;;13.01;44.67
73566;BME280;61846;52.970;-3.168;2023-05-27T06:14:42;101994.69;;;13.96;43.00
73566;BME280;61846;52.970;-3.168;2023-05-27T06:17:07;101995.92;;;13.53;43.67
73566;BME280;61846;52.970;-3.168;2023-05-27T06:19:33;101990.23;;;14.22;42.31
73566;BME280;61846;52.970;-3.168;2023-05-27T06:21:59;101992.05;;;13.65;44.40
73566;BME280;61846;52.970;-3.168;2023-05-27T06:24:24;101986.72;;;14.26;42.79
73566;BME280;61846;52.970;-3.168;2023-05-27T06:26:50;101982.77;;;14.37;42.41
73566;BME280;61846;52.970;-3.168;2023-05-27T06:29:15;101982.15;;;14.18;43.11
73566;BME280;61846;52.970;-3.168;2023-05-27T06:31:40;101979.96;;;14.45;42.79
73566;BME280;61846;52.970;-3.168;2023-05-27T06:34:06;101974.26;;;14.57;42.49
73566;BME280;61846;52.970;-3.168;2023-05-27T06:36:32;101972.04;;;14.67;42.82
73566;BME280;61846;52.970;-3.168;2023-05-27T06:38:56;101969.31;;;14.46;43.00
73566;BME280;61846;52.970;-3.168;2023-05-27T06:41:22;101968.58;;;14.54;43.20
73566;BME280;61846;52.970;-3.168;2023-05-27T06:43:47;101961.28;;;14.81;42.34
73566;BME280;61846;52.970;-3.168;2023-05-27T06:46:13;101958.89;;;15.22;41.95
73566;BME280;61846;52.970;-3.168;2023-05-27T06:48:39;101957.02;;;15.17;41.92
73566;BME280;61846;52.970;-3.168;2023-05-27T06:51:05;101951.04;;;14.90;42.25
73566;BME280;61846;52.970;-3.168;2023-05-27T06:53:30;101948.13;;;15.50;41.10
73566;BME280;61846;52.970;-3.168;2023-05-27T06:55:55;101948.93;;;15.64;40.85
73566;BME280;61846;52.970;-3.168;2023-05-27T06:58:21;101946.18;;;15.59;41.32
73566;BME280;61846;52.970;-3.168;2023-05-27T07:00:46;101945.51;;;14.77;42.66
73566;BME280;61846;52.970;-3.168;2023-05-27T07:03:12;101943.91;;;15.38;41.70
73566;BME280;61846;52.970;-3.168;2023-05-27T07:05:37;101944.42;;;14.75;44.22
73566;BME280;61846;52.970;-3.168;2023-05-27T07:08:03;101943.83;;;14.60;43.69
73566;BME280;61846;52.970;-3.168;2023-05-27T07:10:28;101942.02;;;14.71;43.03
73566;BME280;61846;52.970;-3.168;2023-05-27T07:12:54;101939.95;;;15.50;42.00
73566;BME280;61846;52.970;-3.168;2023-05-27T07:15:19;101937.55;;;16.00;41.81
73566;BME280;61846;52.970;-3.168;2023-05-27T07:17:45;101937.72;;;15.37;42.43
73566;BME280;61846;52.970;-3.168;2023-05-27T07:20:11;101935.56;;;16.34;39.82
73566;BME280;61846;52.970;-3.168;2023-05-27T07:22:36;101935.00;;;16.51;39.70
73566;BME280;61846;52.970;-3.168;2023-05-27T07:25:01;101931.73;;;16.46;39.05
73566;BME280;61846;52.970;-3.168;2023-05-27T07:27:26;101930.39;;;16.84;39.21
73566;BME280;61846;52.970;-3.168;2023-05-27T07:29:52;101927.86;;;16.32;39.58
73566;BME280;61846;52.970;-3.168;2023-05-27T07:32:17;101924.43;;;16.42;39.32
73566;BME280;61846;52.970;-3.168;2023-05-27T07:34:43;101922.84;;;16.56;40.20
73566;BME280;61846;52.970;-3.168;2023-05-27T07:37:08;101923.25;;;16.80;39.36
73566;BME280;61846;52.970;-3.168;2023-05-27T07:39:33;101920.18;;;16.87;38.47
73566;BME280;61846;52.970;-3.168;2023-05-27T07:41:59;101917.60;;;16.35;38.44
73566;BME280;61846;52.970;-3.168;2023-05-27T07:44:24;101919.22;;;16.71;38.61
73566;BME280;61846;52.970;-3.168;2023-05-27T07:46:50;101914.11;;;17.44;37.16
73566;BME280;61846;52.970;-3.168;2023-05-27T07:49:15;101912.68;;;16.56;38.72
73566;BME280;61846;52.970;-3.168;2023-05-27T07:51:41;101912.05;;;17.32;37.17
73566;BME280;61846;52.970;-3.168;2023-05-27T07:54:07;101908.82;;;18.12;36.83
73566;BME280;61846;52.970;-3.168;2023-05-27T07:56:32;101910.14;;;17.90;35.48
73566;BME280;61846;52.970;-3.168;2023-05-27T07:58:58;101908.88;;;17.71;36.72
73566;BME280;61846;52.970;-3.168;2023-05-27T08:01:23;101910.21;;;17.17;37.58
73566;BME280;61846;52.970;-3.168;2023-05-27T08:03:48;101910.17;;;17.90;36.15
73566;BME280;61846;52.970;-3.168;2023-05-27T08:06:13;101908.15;;;18.09;35.60
73566;BME280;61846;52.970;-3.168;2023-05-27T08:08:39;101903.56;;;18.68;34.87
73566;BME280;61846;52.970;-3.168;2023-05-27T08:11:04;101903.67;;;18.65;36.36
73566;BME280;61846;52.970;-3.168;2023-05-27T08:13:30;101897.10;;;19.17;34.07
73566;BME280;61846;52.970;-3.168;2023-05-27T08:15:55;101892.48;;;19.18;35.31
73566;BME280;61846;52.970;-3.168;2023-05-27T08:18:20;101888.41;;;18.85;34.61
73566;BME280;61846;52.970;-3.168;2023-05-27T08:20:46;101885.70;;;18.72;35.87
73566;BME280;61846;52.970;-3.168;2023-05-27T08:23:11;101880.86;;;18.91;34.92
73566;BME280;61846;52.970;-3.168;2023-05-27T08:25:37;101881.30;;;18.08;35.85
73566;BME280;61846;52.970;-3.168;2023-05-27T08:28:02;101876.67;;;18.61;34.47
73566;BME280;61846;52.970;-3.168;2023-05-27T08:30:28;101877.26;;;18.41;35.47
73566;BME280;61846;52.970;-3.168;2023-05-27T08:32:53;101874.18;;;19.52;33.02
73566;BME280;61846;52.970;-3.168;2023-05-27T08:35:18;101872.79;;;19.44;32.11
73566;BME280;61846;52.970;-3.168;2023-05-27T08:37:44;101874.11;;;19.28;33.35
73566;BME280;61846;52.970;-3.168;2023-05-27T08:40:13;101868.24;;;20.05;31.78
73566;BME280;61846;52.970;-3.168;2023-05-27T08:42:36;101865.25;;;19.98;31.66
73566;BME280;61846;52.970;-3.168;2023-05-27T08:45:00;101862.59;;;21.27;30.20
73566;BME280;61846;52.970;-3.168;2023-05-27T08:47:27;101858.43;;;20.79;29.05
73566;BME280;61846;52.970;-3.168;2023-05-27T08:49:51;101856.09;;;19.89;30.44
73566;BME280;61846;52.970;-3.168;2023-05-27T08:52:18;101855.16;;;19.98;29.60
73566;BME280;61846;52.970;-3.168;2023-05-27T08:54:42;101849.72;;;20.59;29.54
73566;BME280;61846;52.970;-3.168;2023-05-27T08:57:07;101843.51;;;20.75;28.62
73566;BME280;61846;52.970;-3.168;2023-05-27T08:59:33;101841.13;;;20.87;29.92
73566;BME280;61846;52.970;-3.168;2023-05-27T09:01:58;101839.26;;;20.44;29.63
73566;BME280;61846;52.970;-3.168;2023-05-27T09:04:24;101834.69;;;21.88;26.24
73566;BME280;61846;52.970;-3.168;2023-05-27T09:06:48;101831.06;;;21.51;28.32
73566;BME280;61846;52.970;-3.168;2023-05-27T09:09:14;101826.90;;;22.51;25.98
73566;BME280;61846;52.970;-3.168;2023-05-27T09:11:40;101819.86;;;22.79;24.34
73566;BME280;61846;52.970;-3.168;2023-05-27T09:14:05;101816.16;;;21.73;26.76
73566;BME280;61846;52.970;-3.168;2023-05-27T09:16:31;101813.53;;;22.15;25.24
73566;BME280;61846;52.970;-3.168;2023-05-27T09:18:56;101813.36;;;22.28;24.78
73566;BME280;61846;52.970;-3.168;2023-05-27T09:21:24;101808.69;;;22.92;24.24
73566;BME280;61846;52.970;-3.168;2023-05-27T09:23:46;101802.08;;;22.80;23.61
73566;BME280;61846;52.970;-3.168;2023-05-27T09:26:12;101798.29;;;22.99;22.70
73566;BME280;61846;52.970;-3.168;2023-05-27T09:28:37;101797.16;;;23.14;22.13
73566;BME280;61846;52.970;-3.168;2023-05-27T09:31:05;101796.51;;;23.30;23.98
73566;BME280;61846;52.970;-3.168;2023-05-27T09:33:31;101797.78;;;23.28;21.97
73566;BME280;61846;52.970;-3.168;2023-05-27T09:35:54;101798.37;;;24.10;20.70
73566;BME280;61846;52.970;-3.168;2023-05-27T09:38:19;101801.08;;;23.77;21.17
73566;BME280;61846;52.970;-3.168;2023-05-27T09:40:44;101799.86;;;24.41;20.55
73566;BME280;61846;52.970;-3.168;2023-05-27T09:43:13;101793.10;;;24.31;20.06
73566;BME280;61846;52.970;-3.168;2023-05-27T09:45:35;101794.22;;;23.77;19.92
73566;BME280;61846;52.970;-3.168;2023-05-27T09:48:01;101789.77;;;24.43;19.97
73566;BME280;61846;52.970;-3.168;2023-05-27T09:50:25;101785.89;;;23.87;20.14
73566;BME280;61846;52.970;-3.168;2023-05-27T09:52:50;101789.44;;;24.55;18.99
73566;BME280;61846;52.970;-3.168;2023-05-27T09:55:16;101789.71;;;24.73;19.17
73566;BME280;61846;52.970;-3.168;2023-05-27T09:57:41;101790.36;;;24.63;19.55
73566;BME280;61846;52.970;-3.168;2023-05-27T10:00:08;101783.32;;;24.44;19.24
73566;BME280;61846;52.970;-3.168;2023-05-27T10:02:33;101782.90;;;23.65;19.34
73566;BME280;61846;52.970;-3.168;2023-05-27T10:04:58;101775.18;;;23.76;18.70
73566;BME280;61846;52.970;-3.168;2023-05-27T10:07:23;101777.37;;;23.65;20.35
73566;BME280;61846;52.970;-3.168;2023-05-27T10:09:48;101776.00;;;24.90;17.46
73566;BME280;61846;52.970;-3.168;2023-05-27T10:12:15;101775.20;;;24.96;19.82
73566;BME280;61846;52.970;-3.168;2023-05-27T10:14:39;101775.99;;;25.20;15.88
73566;BME280;61846;52.970;-3.168;2023-05-27T10:17:04;101772.92;;;25.36;16.31
73566;BME280;61846;52.970;-3.168;2023-05-27T10:19:29;101771.78;;;25.35;17.94
73566;BME280;61846;52.970;-3.168;2023-05-27T10:21:54;101768.62;;;25.32;17.36
73566;BME280;61846;52.970;-3.168;2023-05-27T10:26:46;101764.02;;;25.84;16.69
73566;BME280;61846;52.970;-3.168;2023-05-27T10:29:12;101767.05;;;25.35;15.97
73566;BME280;61846;52.970;-3.168;2023-05-27T10:31:37;101760.19;;;24.89;16.22
73566;BME280;61846;52.970;-3.168;2023-05-27T10:34:04;101759.26;;;25.05;16.06
73566;BME280;61846;52.970;-3.168;2023-05-27T10:36:27;101751.85;;;24.84;18.33
73566;BME280;61846;52.970;-3.168;2023-05-27T10:38:56;101746.92;;;26.01;16.25
73566;BME280;61846;52.970;-3.168;2023-05-27T10:41:17;101740.91;;;26.49;14.80
73566;BME280;61846;52.970;-3.168;2023-05-27T10:43:42;101734.46;;;26.72;15.35
73566;BME280;61846;52.970;-3.168;2023-05-27T10:46:09;101730.08;;;26.53;14.65
73566;BME280;61846;52.970;-3.168;2023-05-27T10:48:33;101731.13;;;25.66;14.87
73566;BME280;61846;52.970;-3.168;2023-05-27T10:50:58;101729.40;;;27.16;15.60
73566;BME280;61846;52.970;-3.168;2023-05-27T10:53:26;101728.31;;;25.50;15.78
73566;BME280;61846;52.970;-3.168;2023-05-27T10:55:50;101727.33;;;25.40;19.07
73566;BME280;61846;52.970;-3.168;2023-05-27T10:58:16;101723.08;;;26.93;16.26
73566;BME280;61846;52.970;-3.168;2023-05-27T11:00:40;101724.26;;;26.44;15.02
73566;BME280;61846;52.970;-3.168;2023-05-27T11:03:04;101720.72;;;27.19;14.79
73566;BME280;61846;52.970;-3.168;2023-05-27T11:05:30;101717.34;;;27.53;15.38
73566;BME280;61846;52.970;-3.168;2023-05-27T11:07:55;101713.21;;;27.03;13.94
73566;BME280;61846;52.970;-3.168;2023-05-27T11:10:20;101706.74;;;27.24;14.92
73566;BME280;61846;52.970;-3.168;2023-05-27T11:12:45;101708.27;;;28.20;14.02
73566;BME280;61846;52.970;-3.168;2023-05-27T11:15:10;101706.32;;;26.99;15.41
73566;BME280;61846;52.970;-3.168;2023-05-27T11:17:36;101704.11;;;27.23;15.32
73566;BME280;61846;52.970;-3.168;2023-05-27T11:20:01;101697.58;;;27.32;15.80
73566;BME280;61846;52.970;-3.168;2023-05-27T11:22:26;101694.08;;;27.46;15.34
73566;BME280;61846;52.970;-3.168;2023-05-27T11:24:56;101695.35;;;26.11;14.80
73566;BME280;61846;52.970;-3.168;2023-05-27T11:27:17;101693.51;;;27.70;15.50
73566;BME280;61846;52.970;-3.168;2023-05-27T11:29:49;101694.90;;;27.94;15.30
73566;BME280;61846;52.970;-3.168;2023-05-27T11:32:08;101693.45;;;28.15;15.33
73566;BME280;61846;52.970;-3.168;2023-05-27T11:34:34;101691.74;;;27.90;14.26
73566;BME280;61846;52.970;-3.168;2023-05-27T11:37:01;101685.01;;;27.16;15.19
73566;BME280;61846;52.970;-3.168;2023-05-27T11:39:24;101684.15;;;26.08;17.03
73566;BME280;61846;52.970;-3.168;2023-05-27T11:41:50;101680.18;;;25.81;16.74
73566;BME280;61846;52.970;-3.168;2023-05-27T11:44:15;101676.47;;;25.92;16.39
73566;BME280;61846;52.970;-3.168;2023-05-27T11:46:41;101674.41;;;26.68;15.08
73566;BME280;61846;52.970;-3.168;2023-05-27T11:49:07;101667.43;;;27.01;15.07
73566;BME280;61846;52.970;-3.168;2023-05-27T11:51:32;101663.32;;;27.15;14.92
73566;BME280;61846;52.970;-3.168;2023-05-27T11:53:57;101658.75;;;26.81;15.50
73566;BME280;61846;52.970;-3.168;2023-05-27T11:56:21;101663.02;;;28.15;15.43
73566;BME280;61846;52.970;-3.168;2023-05-27T11:58:46;101660.54;;;28.31;14.84
73566;BME280;61846;52.970;-3.168;2023-05-27T12:01:11;101657.83;;;27.35;14.65
73566;BME280;61846;52.970;-3.168;2023-05-27T12:03:37;101652.88;;;27.76;14.80
73566;BME280;61846;52.970;-3.168;2023-05-27T12:06:03;101646.00;;;28.20;14.29
73566;BME280;61846;52.970;-3.168;2023-05-27T12:08:27;101641.39;;;28.14;16.13
73566;BME280;61846;52.970;-3.168;2023-05-27T12:10:53;101637.15;;;28.61;15.03
73566;BME280;61846;52.970;-3.168;2023-05-27T12:13:18;101635.50;;;28.40;16.43
73566;BME280;61846;52.970;-3.168;2023-05-27T12:15:43;101631.47;;;29.07;15.26
73566;BME280;61846;52.970;-3.168;2023-05-27T12:18:09;101625.38;;;28.45;14.43
73566;BME280;61846;52.970;-3.168;2023-05-27T12:20:34;101619.98;;;29.08;15.73
73566;BME280;61846;52.970;-3.168;2023-05-27T12:22:59;101621.06;;;28.26;13.96
73566;BME280;61846;52.970;-3.168;2023-05-27T12:25:24;101618.38;;;29.36;15.48
73566;BME280;61846;52.970;-3.168;2023-05-27T12:27:50;101611.48;;;29.63;14.29
73566;BME280;61846;52.970;-3.168;2023-05-27T12:30:15;101611.30;;;28.95;14.36
73566;BME280;61846;52.970;-3.168;2023-05-27T12:32:40;101609.45;;;28.97;14.31